Time;durP1;ratioP1;P1;durP2;ratioP2;P2;SDS_P1;SDS_P2;PMS_P1;PMS_P2;Temp;Humidity;BMP_temperature;BMP_pressure;BME280_temperature;BME280_humidity;BME280_pressure;Samples;Min_cycle;Max_cycle;Signal;HPM_P1;HPM_P2
2021/06/04 00:01:32;;;;;;;5.38;4.88;;;;;;;17.91;100.00;100822.09;5033550;28;20552;-66
2021/06/04 00:04:17;;;;;;;5.75;5.25;;;;;;;17.89;100.00;100822.25;5032263;28;20060;-64
2021/06/04 00:07:02;;;;;;;10.63;5.40;;;;;;;17.88;100.00;100817.88;5019410;28;20432;-66
2021/06/04 00:09:47;;;;;;;6.22;5.63;;;;;;;17.85;100.00;100817.38;5037249;28;20084;-66
2021/06/04 00:12:30;;;;;;;6.57;5.97;;;;;;;17.82;100.00;100820.44;5037562;28;20091;-67
2021/06/04 00:15:18;;;;;;;7.20;5.35;;;;;;;17.78;100.00;100822.66;5037249;28;20052;-67
2021/06/04 00:18:02;;;;;;;5.88;5.38;;;;;;;17.77;100.00;100825.50;5036860;28;20049;-66
2021/06/04 00:20:46;;;;;;;7.07;5.35;;;;;;;17.74;100.00;100825.88;5037128;28;20122;-66
2021/06/04 00:23:30;;;;;;;7.65;6.20;;;;;;;17.73;100.00;100830.41;5036395;28;20048;-66
2021/06/04 00:26:16;;;;;;;6.35;5.75;;;;;;;17.72;100.00;100817.13;5037077;28;20068;-66
2021/06/04 00:29:00;;;;;;;6.90;6.20;;;;;;;17.70;100.00;100827.25;5035590;28;20049;-66
2021/06/04 00:31:46;;;;;;;6.13;5.50;;;;;;;17.67;100.00;100828.44;5035963;28;20052;-66
2021/06/04 00:34:30;;;;;;;6.60;5.00;;;;;;;17.65;100.00;100825.09;5036159;28;20123;-66
2021/06/04 00:37:14;;;;;;;6.57;5.82;;;;;;;17.65;100.00;100826.94;5035872;28;20479;-66
2021/06/04 00:39:58;;;;;;;7.22;6.53;;;;;;;17.67;100.00;100831.13;5035852;28;20103;-66
2021/06/04 00:42:43;;;;;;;7.50;6.07;;;;;;;17.62;100.00;100822.72;5036517;28;20087;-66
2021/06/04 00:45:33;;;;;;;7.40;6.45;;;;;;;17.59;100.00;100825.78;5036684;28;20095;-66
2021/06/04 00:48:19;;;;;;;9.13;6.28;;;;;;;17.50;100.00;100831.41;5035181;28;20121;-67
2021/06/04 00:51:11;;;;;;;7.95;6.15;;;;;;;17.45;100.00;100821.13;5035647;28;20183;-66
2021/06/04 00:53:55;;;;;;;5.90;5.20;;;;;;;17.43;100.00;100825.88;5035556;28;20087;-66
2021/06/04 00:56:40;;;;;;;6.40;5.80;;;;;;;17.41;100.00;100829.75;5021682;28;20044;-66
2021/06/04 00:59:31;;;;;;;8.65;5.95;;;;;;;17.34;100.00;100817.94;5035017;28;20043;-66
2021/06/04 01:02:18;;;;;;;8.00;6.13;;;;;;;17.31;100.00;100821.00;5035456;28;20052;-67
2021/06/04 01:05:05;;;;;;;8.95;6.60;;;;;;;17.30;100.00;100822.00;5035280;28;20115;-66
2021/06/04 01:08:19;;;;;;;7.32;5.72;;;;;;;17.29;100.00;100826.53;5036322;28;20135;-66
2021/06/04 01:11:28;;;;;;;6.20;5.60;;;;;;;17.18;100.00;100829.59;5035275;28;20087;-66
2021/06/04 01:14:18;;;;;;;7.63;5.47;;;;;;;17.10;100.00;100832.31;5035877;28;20091;-66
2021/06/04 01:17:16;;;;;;;6.78;6.07;;;;;;;17.08;100.00;100834.34;5036087;28;20053;-66
2021/06/04 01:20:28;;;;;;;7.53;5.95;;;;;;;17.09;100.00;100830.63;5034088;28;20096;-66
2021/06/04 01:23:24;;;;;;;6.85;6.15;;;;;;;17.07;100.00;100834.50;5034981;28;20053;-66
2021/06/04 01:26:12;;;;;;;6.43;5.80;;;;;;;17.05;100.00;100841.94;5034946;28;20056;-66
2021/06/04 01:29:06;;;;;;;6.78;6.07;;;;;;;17.04;100.00;100841.09;5034486;28;20139;-67
2021/06/04 01:31:55;;;;;;;;;;;;;;;17.06;100.00;100844.47;5035543;28;20130;-67
2021/06/04 01:34:43;;;;;;;6.18;5.57;;;;;;;17.05;100.00;100841.94;5020737;28;19983;-66
2021/06/04 01:37:31;;;;;;;6.68;6.07;;;;;;;17.05;100.00;100850.00;5034751;28;20044;-67
2021/06/04 01:40:34;;;;;;;9.13;6.00;;;;;;;17.03;100.00;100834.03;5035668;28;20469;-66
2021/06/04 01:43:24;;;;;;;6.07;5.57;;;;;;;17.01;100.00;100833.34;5020714;28;20461;-67
2021/06/04 01:46:16;;;;;;;6.47;5.88;;;;;;;16.99;100.00;100838.06;5034310;28;20056;-66
2021/06/04 01:49:24;;;;;;;8.40;5.85;;;;;;;16.96;100.00;100829.47;5034371;28;20044;-67
2021/06/04 01:52:15;;;;;;;7.03;6.32;;;;;;;16.92;100.00;100839.78;5035424;28;20048;-66
2021/06/04 01:55:36;;;;;;;8.63;6.13;;;;;;;16.93;100.00;100846.00;5035638;28;20056;-66
2021/06/04 01:58:26;;;;;;;7.50;6.10;;;;;;;16.91;100.00;100843.47;5033016;28;20586;-67
2021/06/04 02:01:24;;;;;;;6.30;5.70;;;;;;;16.87;100.00;100839.44;5034290;28;20044;-66
2021/06/04 02:04:14;;;;;;;7.10;6.43;;;;;;;16.83;100.00;100838.13;5033949;28;20128;-66
2021/06/04 02:06:58;;;;;;;6.70;6.05;;;;;;;16.83;100.00;100840.81;5034190;28;20060;-66
2021/06/04 02:09:43;;;;;;;7.28;6.15;;;;;;;16.83;100.00;100840.81;5034016;28;20454;-66
2021/06/04 02:12:27;;;;;;;8.52;6.55;;;;;;;16.81;100.00;100840.16;5035045;28;20056;-66
2021/06/04 02:15:19;;;;;;;6.60;6.00;;;;;;;16.79;100.00;100849.41;5034920;28;20102;-67
2021/06/04 02:18:03;;;;;;;7.30;5.68;;;;;;;16.73;100.00;100844.69;5033871;28;20044;-66
2021/06/04 02:20:53;;;;;;;6.90;6.03;;;;;;;16.69;100.00;100848.72;5034657;28;20048;-66
2021/06/04 02:23:46;;;;;;;7.10;6.38;;;;;;;16.66;100.00;100846.34;5034002;28;20087;-66
2021/06/04 02:26:49;;;;;;;7.18;5.65;;;;;;;16.63;100.00;100844.88;5033813;28;20521;-66
2021/06/04 02:29:49;;;;;;;7.40;5.75;;;;;;;16.68;100.00;100836.28;5033305;28;20044;-66
2021/06/04 02:32:40;;;;;;;7.10;6.10;;;;;;;16.71;100.00;100842.19;5033443;28;20079;-66
2021/06/04 02:35:32;;;;;;;6.60;5.90;;;;;;;16.77;100.00;100848.72;5033393;28;20071;-67
2021/06/04 02:38:25;;;;;;;6.72;6.13;;;;;;;16.80;100.00;100851.91;5033457;28;20039;-66
2021/06/04 02:41:19;;;;;;;6.25;5.22;;;;;;;16.81;100.00;100850.91;5035148;28;20060;-66
2021/06/04 02:44:12;;;;;;;5.45;4.95;;;;;;;16.80;100.00;100846.50;5033253;28;20074;-66
2021/06/04 02:47:03;;;;;;;5.97;5.37;;;;;;;16.82;100.00;100849.91;5033358;28;20049;-66
2021/06/04 02:49:48;;;;;;;6.32;5.57;;;;;;;16.84;100.00;100842.50;5019075;28;20312;-66
2021/06/04 02:52:36;;;;;;;8.07;5.40;;;;;;;16.89;100.00;100845.50;5033578;28;20124;-66
2021/06/04 02:55:31;;;;;;;6.30;5.70;;;;;;;16.93;100.00;100848.69;5033309;28;20422;-66
2021/06/04 02:58:15;;;;;;;6.75;6.10;;;;;;;16.95;100.00;100854.75;5033933;28;20413;-67
2021/06/04 03:01:00;;;;;;;7.90;6.50;;;;;;;16.97;100.00;100848.19;5032903;28;20053;-66
2021/06/04 03:03:47;;;;;;;7.63;6.43;;;;;;;17.05;100.00;100855.41;5032853;28;20088;-65
2021/06/04 03:06:42;;;;;;;7.60;6.68;;;;;;;17.07;100.00;100853.38;5034057;28;20568;-66
2021/06/04 03:09:27;;;;;;;;;;;;;;;17.10;100.00;100853.88;5033085;28;20125;-66
2021/06/04 03:12:15;;;;;;;6.28;5.68;;;;;;;17.14;100.00;100854.38;5033704;28;19920;-66
2021/06/04 03:15:00;;;;;;;7.28;5.47;;;;;;;17.15;100.00;100851.53;5032946;28;20084;-66
2021/06/04 03:17:45;;;;;;;10.18;6.15;;;;;;;17.14;100.00;100847.16;5032795;28;20060;-66
2021/06/04 03:20:33;;;;;;;9.05;5.10;;;;;;;17.13;100.00;100853.56;5032849;28;20052;-66
2021/06/04 03:23:23;;;;;;;6.80;6.10;;;;;;;17.14;100.00;100859.75;5033709;28;20064;-67
2021/06/04 03:26:15;;;;;;;7.68;6.22;;;;;;;17.13;100.00;100863.47;5033037;28;20052;-66
2021/06/04 03:29:05;;;;;;;6.85;6.15;;;;;;;17.09;100.00;100862.97;5019105;28;20136;-66
2021/06/04 03:31:55;;;;;;;6.78;6.18;;;;;;;17.13;100.00;100867.03;5033591;28;20120;-66
2021/06/04 03:34:41;;;;;;;8.13;6.50;;;;;;;17.24;100.00;100877.44;5018856;28;20056;-67
2021/06/04 03:37:25;;;;;;;7.93;7.13;;;;;;;17.26;100.00;100875.41;5018660;28;20052;-67
2021/06/04 03:40:16;;;;;;;9.73;8.13;;;;;;;17.30;100.00;100881.28;5033298;28;20513;-66
2021/06/04 03:43:04;;;;;;;7.93;6.93;;;;;;;17.37;100.00;100883.16;5032004;28;20055;-66
2021/06/04 03:45:48;;;;;;;8.38;7.22;;;;;;;17.42;100.00;100880.75;5033158;28;20071;-66
2021/06/04 03:48:34;;;;;;;8.13;7.32;;;;;;;17.51;100.00;100878.91;5033046;28;20120;-66
2021/06/04 03:51:22;;;;;;;7.38;6.55;;;;;;;17.57;100.00;100873.66;5032165;28;20052;-67
2021/06/04 03:54:10;;;;;;;6.78;5.90;;;;;;;17.64;100.00;100874.66;5032143;28;20045;-66
2021/06/04 03:56:54;;;;;;;9.07;7.93;;;;;;;17.73;100.00;100878.13;5018197;28;20044;-66
2021/06/04 03:59:38;;;;;;;;;;;;;;;17.76;100.00;100877.78;5032414;28;20095;-66
2021/06/04 04:02:24;;;;;;;8.47;6.40;;;;;;;17.79;100.00;100886.34;5032358;28;20385;-66
2021/06/04 04:05:09;;;;;;;7.55;6.75;;;;;;;17.86;100.00;100895.44;5032015;28;20418;-66
2021/06/04 04:07:53;;;;;;;7.60;6.80;;;;;;;17.93;100.00;100884.78;5032737;28;20418;-66
2021/06/04 04:10:37;;;;;;;;;;;;;;;17.99;100.00;100887.59;5032673;28;20044;-66
2021/06/04 04:13:22;;;;;;;7.37;6.33;;;;;;;18.04;100.00;100890.63;5032251;28;19938;-66
2021/06/04 04:16:07;;;;;;;8.90;5.90;;;;;;;18.08;100.00;100883.84;5031901;28;20294;-66
2021/06/04 04:18:51;;;;;;;7.20;6.50;;;;;;;18.15;100.00;100890.22;5031951;28;20095;-66
2021/06/04 04:21:36;;;;;;;8.18;7.03;;;;;;;18.21;100.00;100889.50;5032162;28;20072;-66
2021/06/04 04:24:26;;;;;;;8.60;7.38;;;;;;;18.22;100.00;100891.19;5031821;28;20052;-66
2021/06/04 04:27:10;;;;;;;11.60;6.75;;;;;;;18.24;100.00;100899.94;5033037;28;20052;-67
2021/06/04 04:29:53;;;;;;;7.22;5.72;;;;;;;18.27;100.00;100900.41;5033140;28;20049;-67
2021/06/04 04:32:38;;;;;;;7.80;7.05;;;;;;;18.35;100.00;100907.69;5033131;28;20068;-66
2021/06/04 04:35:25;;;;;;;14.02;8.38;;;;;;;18.29;100.00;100903.00;5031765;28;20056;-66
2021/06/04 04:38:10;;;;;;;8.00;7.20;;;;;;;18.20;100.00;100909.41;5031870;28;20509;-66
2021/06/04 04:41:03;;;;;;;10.73;7.45;;;;;;;18.18;100.00;100906.06;5018031;28;20482;-66
2021/06/04 04:43:51;;;;;;;8.85;6.88;;;;;;;18.21;100.00;100905.69;5032307;28;20418;-66
2021/06/04 04:46:35;;;;;;;9.52;8.15;;;;;;;18.19;100.00;100896.09;5032869;28;20183;-66
2021/06/04 04:49:19;;;;;;;8.82;7.93;;;;;;;18.26;100.00;100897.91;5031588;28;20421;-67
2021/06/04 04:52:11;;;;;;;9.48;8.23;;;;;;;18.26;100.00;100906.03;5032849;28;20522;-66
2021/06/04 04:54:56;;;;;;;8.88;7.85;;;;;;;18.29;100.00;100902.13;5034335;28;20060;-66
2021/06/04 04:57:40;;;;;;;8.25;7.45;;;;;;;18.35;100.00;100906.84;5036304;28;20064;-66
2021/06/04 05:00:26;;;;;;;7.35;6.63;;;;;;;18.39;100.00;100903.59;5036167;28;20044;-66
2021/06/04 05:03:12;;;;;;;7.63;6.85;;;;;;;18.43;100.00;100899.50;5035354;28;20048;-66
2021/06/04 05:05:56;;;;;;;8.45;7.65;;;;;;;18.51;100.00;100903.00;5036543;28;20052;-67
2021/06/04 05:08:40;;;;;;;7.97;7.18;;;;;;;18.58;100.00;100892.31;5035113;28;20136;-66
2021/06/04 05:11:24;;;;;;;;;;;;;;;18.65;100.00;100901.38;5035659;28;20573;-67
2021/06/04 05:14:08;;;;;;;8.55;7.03;;;;;;;18.71;100.00;100897.97;5021251;28;20412;-66
2021/06/04 05:16:52;;;;;;;9.82;6.90;;;;;;;18.78;100.00;100898.91;5036144;28;20064;-66
2021/06/04 05:19:38;;;;;;;7.03;6.32;;;;;;;18.86;100.00;100901.56;5034786;28;20044;-66
2021/06/04 05:22:22;;;;;;;7.97;7.18;;;;;;;18.88;100.00;100899.50;5036007;28;20047;-67
2021/06/04 05:25:10;;;;;;;11.23;7.95;;;;;;;18.96;100.00;100907.53;5034996;28;20048;-66
2021/06/04 05:27:54;;;;;;;7.82;7.10;;;;;;;18.91;100.00;100909.94;5035671;28;20116;-66
2021/06/04 05:30:39;;;;;;;;;;;;;;;18.86;100.00;100912.38;5035553;28;20544;-66
2021/06/04 05:33:25;;;;;;;7.72;6.90;;;;;;;18.82;100.00;100908.31;5034576;28;20326;-66
2021/06/04 05:36:12;;;;;;;9.40;8.40;;;;;;;18.74;100.00;100908.38;5034442;28;20098;-66
2021/06/04 05:38:56;;;;;;;8.85;7.95;;;;;;;18.77;100.00;100913.44;5020671;28;20060;-67
2021/06/04 05:41:43;;;;;;;8.40;7.53;;;;;;;18.80;100.00;100902.28;5035666;28;20572;-67
2021/06/04 05:44:29;;;;;;;7.72;6.90;;;;;;;18.88;100.00;100902.22;5035553;28;20103;-67
2021/06/04 05:47:14;;;;;;;7.35;6.68;;;;;;;18.99;100.00;100907.19;5035523;28;20051;-67
2021/06/04 05:49:58;;;;;;;8.75;6.85;;;;;;;19.08;100.00;100911.50;5034490;28;20052;-67
2021/06/04 05:52:45;;;;;;;8.68;7.20;;;;;;;19.18;100.00;100915.63;5034467;28;20418;-67
2021/06/04 05:55:31;;;;;;;7.78;7.05;;;;;;;19.29;100.00;100917.88;5035127;28;20072;-67
2021/06/04 05:58:18;;;;;;;10.55;8.55;;;;;;;19.44;100.00;100916.03;5033911;28;20415;-67
2021/06/04 06:01:07;;;;;;;9.50;8.25;;;;;;;19.60;100.00;100921.25;5035556;28;20056;-67
2021/06/04 06:03:50;;;;;;;10.38;8.60;;;;;;;19.78;100.00;100918.19;5033976;28;20052;-67
2021/06/04 06:06:34;;;;;;;10.70;9.60;;;;;;;19.90;100.00;100909.41;5034982;28;20124;-67
2021/06/04 06:09:20;;;;;;;10.45;9.43;;;;;;;19.99;100.00;100912.84;5034982;28;20052;-66
2021/06/04 06:12:04;;;;;;;11.43;9.63;;;;;;;20.14;100.00;100908.28;5034147;28;20048;-67
2021/06/04 06:14:48;;;;;;;11.50;10.30;;;;;;;20.24;100.00;100916.94;5033789;28;20048;-67
2021/06/04 06:17:33;;;;;;;8.48;7.63;;;;;;;20.35;100.00;100929.97;5019989;28;20497;-67
2021/06/04 06:20:18;;;;;;;11.98;9.98;;;;;;;20.51;99.02;100933.28;5034677;28;20185;-66
2021/06/04 06:23:02;;;;;;;13.93;8.05;;;;;;;20.63;98.35;100933.63;5034890;28;20537;-66
2021/06/04 06:25:49;;;;;;;11.20;9.20;;;;;;;20.74;98.28;100941.22;5033892;28;20120;-66
2021/06/04 06:28:37;;;;;;;9.13;8.13;;;;;;;20.90;97.53;100941.00;5033350;28;20049;-67
2021/06/04 06:31:25;;;;;;;10.48;9.05;;;;;;;21.08;95.16;100949.50;5033743;28;20051;-67
2021/06/04 06:34:11;;;;;;;9.10;8.15;;;;;;;21.25;93.79;100949.88;5033818;28;20120;-67
2021/06/04 06:36:55;;;;;;;17.13;11.82;;;;;;;21.40;90.43;100950.59;5034268;28;20056;-67
2021/06/04 06:39:39;;;;;;;14.45;10.50;;;;;;;21.55;89.96;100945.06;5033177;28;20566;-67
2021/06/04 06:42:23;;;;;;;11.85;9.80;;;;;;;21.71;89.44;100948.34;5019571;28;20094;-67
2021/06/04 06:45:09;;;;;;;12.90;10.52;;;;;;;21.90;88.77;100944.09;5033477;28;20572;-66
2021/06/04 06:47:54;;;;;;;17.35;11.77;;;;;;;22.09;87.85;100944.16;5033078;28;20560;-67
2021/06/04 06:50:39;;;;;;;16.65;11.38;;;;;;;22.29;86.22;100947.81;5033359;28;20076;-67
2021/06/04 06:53:25;;;;;;;16.48;11.38;;;;;;;22.52;84.04;100964.63;5034255;28;20096;-67
2021/06/04 06:56:13;;;;;;;16.83;12.98;;;;;;;22.65;81.50;100956.53;5032742;28;20359;-66
2021/06/04 06:58:57;;;;;;;16.10;10.52;;;;;;;22.75;81.71;100948.81;5032851;28;20096;-66
2021/06/04 07:01:41;;;;;;;15.43;11.20;;;;;;;22.94;81.42;100958.88;5034167;28;20132;-66
2021/06/04 07:04:25;;;;;;;;;;;;;;;23.10;80.42;100955.75;5034474;28;20106;-67
2021/06/04 07:07:09;;;;;;;11.90;10.33;;;;;;;23.36;77.29;100957.66;5032726;28;20404;-66
2021/06/04 07:09:53;;;;;;;15.65;10.95;;;;;;;23.61;75.57;100964.97;5032665;28;20048;-67
2021/06/04 07:12:37;;;;;;;;;;;;;;;23.83;74.66;100960.94;5033415;28;20107;-67
2021/06/04 07:15:23;;;;;;;11.88;9.75;;;;;;;24.14;72.78;100958.38;5033657;28;19920;-67
2021/06/04 07:18:08;;;;;;;13.85;9.63;;;;;;;24.33;72.38;100958.31;5032431;28;20128;-67
2021/06/04 07:20:53;;;;;;;12.88;9.77;;;;;;;24.47;71.87;100953.59;5033113;28;20052;-67
2021/06/04 07:23:37;;;;;;;17.50;9.98;;;;;;;24.55;71.93;100964.28;5033402;28;20129;-67
2021/06/04 07:26:21;;;;;;;11.00;9.65;;;;;;;24.78;69.90;100967.31;5033693;28;20071;-67
2021/06/04 07:29:05;;;;;;;10.55;8.55;;;;;;;24.96;68.19;100970.13;5033585;28;20071;-67
2021/06/04 07:31:51;;;;;;;12.15;10.85;;;;;;;24.83;67.26;100972.94;5032438;28;20509;-67
2021/06/04 07:34:34;;;;;;;12.00;10.70;;;;;;;24.70;67.53;100970.31;5032599;28;20088;-67
2021/06/04 07:37:19;;;;;;;10.90;9.90;;;;;;;24.74;67.53;100966.09;5032833;28;20103;-67
2021/06/04 07:40:05;;;;;;;13.77;10.43;;;;;;;24.76;66.66;100969.41;5033531;28;20138;-66
2021/06/04 07:42:49;;;;;;;16.13;10.25;;;;;;;25.03;68.33;100965.47;5032513;28;20494;-67
2021/06/04 07:45:37;;;;;;;15.23;12.27;;;;;;;24.80;68.37;100976.13;5033180;28;20060;-66
2021/06/04 07:48:21;;;;;;;16.20;10.23;;;;;;;24.73;69.27;100964.41;5032272;28;20632;-67
2021/06/04 07:51:09;;;;;;;13.40;11.10;;;;;;;24.79;68.37;100952.63;5032725;28;20128;-67
2021/06/04 07:53:53;;;;;;;11.13;8.77;;;;;;;24.76;66.47;100955.78;5019307;28;20133;-67
2021/06/04 07:56:37;;;;;;;;;;;;;;;24.84;66.02;100969.16;5032410;28;20422;-67
2021/06/04 07:59:21;;;;;;;12.10;9.18;;;;;;;24.52;66.86;100959.25;5032362;28;20297;-67
2021/06/04 08:02:05;;;;;;;9.27;8.30;;;;;;;24.52;66.55;100964.72;5033155;28;20410;-67
2021/06/04 08:04:51;;;;;;;10.90;9.80;;;;;;;24.32;67.54;100969.41;5032882;28;20414;-67
2021/06/04 08:07:36;;;;;;;12.60;9.10;;;;;;;24.41;68.85;100965.41;5031686;28;20511;-67
2021/06/04 08:10:23;;;;;;;;;;;;;;;24.64;68.55;100968.44;5035782;28;20128;-68
2021/06/04 08:13:09;;;;;;;13.20;11.07;;;;;;;25.03;66.99;100968.19;5031728;28;19920;-68
2021/06/04 08:15:58;;;;;;;10.40;9.32;;;;;;;25.35;69.19;100962.53;5032891;28;20129;-67
2021/06/04 08:18:43;;;;;;;11.77;9.55;;;;;;;25.76;70.11;100959.19;5032943;28;20104;-66
2021/06/04 08:21:40;;;;;;;15.73;10.90;;;;;;;25.85;69.60;100958.66;5018927;28;20071;-67
2021/06/04 08:24:28;;;;;;;14.90;12.02;;;;;;;25.88;67.76;100960.13;5033717;28;20056;-67
2021/06/04 08:27:30;;;;;;;11.20;9.57;;;;;;;25.98;67.20;100950.34;5031749;28;20052;-67
2021/06/04 08:30:14;;;;;;;12.88;11.48;;;;;;;26.19;65.76;100946.31;5037015;28;20114;-67
2021/06/04 08:33:00;;;;;;;13.30;10.98;;;;;;;26.25;66.41;100948.16;5023306;28;20098;-66
2021/06/04 08:35:44;;;;;;;16.10;10.93;;;;;;;26.29;67.03;100946.59;5041495;28;20048;-68
2021/06/04 08:38:30;;;;;;;;;;;;;;;26.45;68.01;100948.72;5039602;28;20466;-67
2021/06/04 08:41:26;;;;;;;13.30;10.55;;;;;;;26.75;66.02;100952.34;5035537;28;19920;-67
2021/06/04 08:44:52;;;;;;;13.07;11.27;;;;;;;27.02;65.50;100948.97;5036763;28;20057;-66
2021/06/04 08:47:38;;;;;;;12.43;10.48;;;;;;;27.15;65.26;100946.88;5035621;28;20051;-67
2021/06/04 08:50:43;;;;;;;17.83;11.68;;;;;;;27.23;63.63;100949.25;5021322;28;20052;-66
2021/06/04 08:53:56;;;;;;;11.38;9.15;;;;;;;27.44;64.96;100942.38;5036834;28;20141;-66
2021/06/04 08:56:44;;;;;;;12.90;10.45;;;;;;;27.63;62.96;100942.00;5037940;28;20094;-68
2021/06/04 08:59:30;;;;;;;11.00;9.88;;;;;;;27.63;62.79;100942.00;5038174;28;20053;-68
2021/06/04 09:02:21;;;;;;;12.80;11.25;;;;;;;27.55;60.66;100934.19;5022763;28;20091;-68
2021/06/04 09:05:12;;;;;;;13.70;8.73;;;;;;;27.41;59.47;100940.94;5038031;28;20060;-66
2021/06/04 09:07:56;;;;;;;10.85;7.95;;;;;;;27.39;63.18;100934.88;5038585;28;20052;-66
2021/06/04 09:10:49;;;;;;;9.35;7.25;;;;;;;27.55;60.66;100934.19;5036035;28;20048;-66
2021/06/04 09:13:36;;;;;;;8.10;6.60;;;;;;;27.24;55.29;100942.72;5035912;28;20127;-66
2021/06/04 09:16:43;;;;;;;12.77;6.57;;;;;;;26.86;55.99;100933.19;5034958;28;20095;-66
2021/06/04 09:19:33;;;;;;;7.00;5.72;;;;;;;26.94;56.74;100940.25;5036018;28;20094;-66
2021/06/04 09:22:19;;;;;;;6.47;5.72;;;;;;;27.01;57.47;100933.59;5035276;28;20059;-67
2021/06/04 09:25:17;;;;;;;6.40;5.72;;;;;;;27.19;56.60;100923.44;5035065;28;20075;-65
2021/06/04 09:28:10;;;;;;;7.05;5.97;;;;;;;27.30;57.33;100925.34;5035653;28;20434;-63
2021/06/04 09:31:00;;;;;;;8.35;6.18;;;;;;;27.38;56.77;100930.47;5035663;28;20052;-67
2021/06/04 09:33:51;;;;;;;9.38;7.18;;;;;;;27.35;56.51;100933.69;5035001;28;20068;-65
2021/06/04 09:36:49;;;;;;;9.13;7.13;;;;;;;27.39;57.55;100921.19;5020456;28;20051;-67
2021/06/04 09:39:36;;;;;;;7.80;7.10;;;;;;;27.46;55.27;100929.28;5034714;28;20513;-66
2021/06/04 09:42:23;;;;;;;7.43;6.40;;;;;;;27.53;56.72;100930.00;5035594;28;20167;-66
2021/06/04 09:45:11;;;;;;;8.77;6.57;;;;;;;27.37;56.07;100920.59;5034753;28;20087;-66
2021/06/04 09:48:14;;;;;;;6.85;6.07;;;;;;;28.00;56.10;100927.00;5034352;28;20055;-66
2021/06/04 09:51:31;;;;;;;7.88;6.70;;;;;;;27.67;52.91;100921.31;5034317;28;20123;-66
2021/06/04 09:54:26;;;;;;;6.63;5.97;;;;;;;28.03;52.18;100914.72;5035097;28;20056;-65
2021/06/04 09:57:17;;;;;;;7.00;6.40;;;;;;;28.41;52.17;100910.34;5034280;28;20087;-67
2021/06/04 10:00:20;;;;;;;6.25;5.30;;;;;;;28.69;52.52;100899.34;5034045;28;20048;-67
2021/06/04 10:03:29;;;;;;;9.23;6.00;;;;;;;28.64;50.79;100901.19;5034978;28;20102;-67
2021/06/04 10:06:13;;;;;;;7.80;6.10;;;;;;;29.00;50.00;100906.22;5034282;28;20094;-67
2021/06/04 10:08:58;;;;;;;;;;;;;;;29.38;48.05;100895.31;5035414;28;20445;-67
2021/06/04 10:11:41;;;;;;;;;;;;;;;29.70;47.31;100893.63;5020598;28;20289;-67
2021/06/04 10:15:08;;;;;;;;;;;;;;;30.15;46.00;100897.84;5035320;28;19923;-67
2021/06/04 10:18:22;;;;;;;;;;;;;;;30.79;44.79;100886.75;5035491;28;19963;-67
2021/06/04 10:20:48;;;;;;;;;;;;;;;31.85;42.47;100880.94;5034292;28;19920;-67
2021/06/04 10:23:40;;;;;;;;;;;;;;;31.95;40.46;100881.00;5034013;28;20337;-66
2021/06/04 10:26:28;;;;;;;;;;;;;;;32.51;39.82;100874.59;5020329;28;19920;-67
2021/06/04 10:29:13;;;;;;;;;;;;;;;32.75;39.65;100874.94;5033740;28;20403;-66
2021/06/04 10:32:02;;;;;;;;;;;;;;;32.69;38.64;100864.97;5020063;28;20008;-67
2021/06/04 10:34:57;;;;;;;;;;;;;;;33.93;36.97;100861.25;5033920;28;19920;-67
2021/06/04 10:37:48;;;;;;;;;;;;;;;34.13;35.54;100864.78;5033549;28;19920;-67
2021/06/04 10:40:39;;;;;;;;;;;;;;;34.36;36.08;100861.34;5033653;28;19916;-67
2021/06/04 10:43:34;;;;;;;;;;;;;;;34.89;34.00;100854.91;5034184;28;20385;-67
2021/06/04 10:46:31;;;;;;;;;;;;;;;36.61;32.30;100859.09;5019927;28;19963;-66
2021/06/04 10:49:27;;;;;;;;;;;;;;;37.23;30.85;100858.63;5033457;28;20405;-66
2021/06/04 10:52:30;;;;;;;;;;;;;;;36.18;32.92;100857.47;5033768;28;19920;-67
2021/06/04 10:55:22;;;;;;;;;;;;;;;37.53;29.89;100852.53;5033770;28;19919;-66
2021/06/04 10:58:12;;;;;;;;;;;;;;;35.70;31.85;100866.91;5033194;28;19935;-66
2021/06/04 11:01:00;;;;;;;;;;;;;;;35.77;31.80;100861.84;5033623;28;19923;-65
2021/06/04 11:04:19;;;;;;;;;;;;;;;37.31;30.74;100838.47;5033607;28;20354;-67
2021/06/04 11:07:03;;;;;;;;;;;;;;;36.81;30.41;100840.16;5012779;28;19951;-67
2021/06/04 11:10:03;;;;;;;;;;;;;;;36.90;31.05;100831.94;5034086;28;20012;-67
2021/06/04 11:12:47;;;;;;;;;;;;;;;38.35;28.97;100837.44;5019756;28;19920;-67
2021/06/04 11:15:51;;;;;;;;;;;;;;;37.50;29.61;100825.34;5034366;28;20401;-67
2021/06/04 11:18:39;;;;;;;;;;;;;;;38.38;28.62;100820.13;5019599;28;19919;-67
2021/06/04 11:21:26;;;;;;;;;;;;;;;37.64;29.84;100810.28;5033328;28;19950;-67
2021/06/04 11:24:28;;;;;;;;;;;;;;;37.90;29.06;100807.81;5033011;28;19975;-66
2021/06/04 11:27:18;;;;;;;;;;;;;;;37.21;30.10;100813.63;5033920;28;19919;-66
2021/06/04 11:30:03;;;;;;;;;;;;;;;36.97;30.61;100799.03;5033255;28;20286;-66
2021/06/04 11:33:02;;;;;;;;;;;;;;;36.54;30.23;100794.72;5032913;28;20002;-67
2021/06/04 11:35:52;;;;;;;;;;;;;;;38.04;29.23;100791.91;5032840;28;19920;-65
2021/06/04 11:38:50;;;;;;;;;;;;;;;38.63;28.09;100777.72;5034031;28;19935;-65
2021/06/04 11:41:35;;;;;;;;;;;;;;;40.20;24.94;100786.69;5033018;28;19978;-67
2021/06/04 11:44:28;;;;;;;;;;;;;;;39.25;26.90;100780.28;5032967;28;20282;-67
2021/06/04 11:47:12;;;;;;;;;;;;;;;37.20;27.93;100786.94;5032964;28;20328;-66
2021/06/04 11:49:56;;;;;;;;;;;;;;;36.48;30.23;100779.28;5033607;28;20322;-67
2021/06/04 11:52:44;;;;;;;;;;;;;;;37.42;29.26;100779.56;5034168;28;19959;-66
2021/06/04 11:55:29;;;;;;;;;;;;;;;36.37;29.13;100783.34;5032565;28;19920;-66
2021/06/04 11:58:28;;;;;;;;;;;;;;;35.87;29.72;100775.72;5033469;28;19919;-67
2021/06/04 12:01:15;;;;;;;;;;;;;;;36.88;29.82;100767.50;5033879;28;19967;-67
2021/06/04 12:03:59;;;;;;;;;;;;;;;37.20;28.90;100759.13;5039106;28;19978;-67
2021/06/04 12:06:49;;;;;;;;;;;;;;;35.65;30.11;100764.34;5040081;28;20293;-67
2021/06/04 12:09:33;;;;;;;;;;;;;;;35.27;29.75;100761.75;5040161;28;19924;-67
2021/06/04 12:12:19;;;;;;;;;;;;;;;35.24;30.15;100760.38;5039971;28;19919;-67
2021/06/04 12:15:03;;;;;;;;;;;;;;;35.00;30.55;100750.38;5040259;28;19975;-67
2021/06/04 12:17:47;;;;;;;;;;;;;;;34.54;31.32;100758.25;5040091;28;19919;-67
2021/06/04 12:20:31;;;;;;;;;;;;;;;34.89;30.12;100754.34;5039120;28;19915;-66
2021/06/04 12:23:33;;;;;;;;;;;;;;;34.03;31.33;100754.16;5039583;28;19920;-67
2021/06/04 12:26:38;;;;;;;;;;;;;;;33.52;32.55;100760.16;5040160;28;19919;-67
2021/06/04 12:29:22;;;;;;;;;;;;;;;32.78;33.67;100753.69;5038475;28;19940;-66
2021/06/04 12:32:12;;;;;;;;;;;;;;;31.75;35.83;100758.78;5039969;28;19923;-67
2021/06/04 12:35:00;;;;;;;;;;;;;;;32.14;35.99;100757.19;5039825;28;19923;-66
2021/06/04 12:37:43;;;;;;;;;;;;;;;32.73;34.45;100758.41;5038778;28;19920;-66
2021/06/04 12:40:29;;;;;;;;;;;;;;;32.51;34.80;100757.84;5039664;28;20289;-67
2021/06/04 12:43:19;;;;;;;;;;;;;;;32.47;35.53;100756.75;5038804;28;19920;-65
2021/06/04 12:46:09;;;;;;;;;;;;;;;31.31;35.89;100760.19;5039469;28;20380;-66
2021/06/04 12:49:00;;;;;;;;;;;;;;;31.25;36.80;100750.25;5039426;28;19923;-67
2021/06/04 12:51:45;;;;;;;;;;;;;;;31.40;37.31;100744.81;5024989;28;19963;-67
2021/06/04 12:54:29;;;;;;;;;;;;;;;31.15;36.70;100756.50;5038616;28;19967;-67
2021/06/04 12:57:23;;;;;;;;;;;;;;;30.88;37.72;100753.03;5038639;28;20305;-67
2021/06/04 13:00:14;;;;;;;;;;;;;;;30.29;38.22;100759.66;5024673;28;19923;-67
2021/06/04 13:03:10;;;;;;;;;;;;;;;30.55;38.14;100768.97;5038845;28;20415;-67
2021/06/04 13:05:55;;;;;;;;;;;;;;;30.38;38.74;100757.25;5039523;28;19967;-67
2021/06/04 13:08:46;;;;;;;;;;;;;;;31.16;37.70;100757.34;5038479;28;19923;-67
2021/06/04 13:11:33;;;;;;;;;;;;;;;31.43;36.20;100752.53;5039081;28;20405;-66
2021/06/04 13:14:25;;;;;;;;;;;;;;;31.83;35.99;100755.47;5037237;28;19919;-67
2021/06/04 13:17:09;;;;;;;;;;;;;;;32.26;35.53;100752.31;5035612;28;19923;-67
2021/06/04 13:20:12;;;;;;;;;;;;;;;31.96;35.00;100754.97;5036168;28;19920;-67